Time;durP1;ratioP1;P1;durP2;ratioP2;P2;SDS_P1;SDS_P2;PMS_P1;PMS_P2;Temp;Humidity;BMP_temperature;BMP_pressure;BME280_temperature;BME280_humidity;BME280_pressure;Samples;Min_cycle;Max_cycle;Signal;HPM_P1;HPM_P2
2021/12/29 00:01:28;;;;;;;7.80;1.70;;;;;;;;;;5009289;28;20054;-69
2021/12/29 00:03:54;;;;;;;7.22;1.60;;;;;;;;;;4993316;28;20041;-69
2021/12/29 00:06:20;;;;;;;7.85;1.80;;;;;;;;;;4996162;28;20100;-70
2021/12/29 00:08:47;;;;;;;5.88;1.67;;;;;;;;;;5001184;28;20046;-70
2021/12/29 00:11:13;;;;;;;5.78;1.60;;;;;;;;;;5001209;28;20054;-72
2021/12/29 00:13:39;;;;;;;8.77;1.73;;;;;;;;;;5000634;28;20499;-66
2021/12/29 00:16:05;;;;;;;10.45;1.90;;;;;;;;;;4997265;28;20061;-70
2021/12/29 00:18:34;;;;;;;7.75;1.98;;;;;;;;;;4997095;28;20054;-71
2021/12/29 00:21:03;;;;;;;8.75;2.00;;;;;;;;;;4985556;28;20950;-69
2021/12/29 00:23:29;;;;;;;11.48;2.15;;;;;;;;;;4983040;28;20495;-64
2021/12/29 00:25:55;;;;;;;9.00;1.55;;;;;;;;;;4999343;28;20057;-66
2021/12/29 00:28:22;;;;;;;9.88;2.00;;;;;;;;;;4998295;28;20050;-66
2021/12/29 00:30:48;;;;;;;9.40;2.33;;;;;;;;;;5001593;28;20136;-68
2021/12/29 00:33:14;;;;;;;10.85;1.70;;;;;;;;;;5000107;28;20434;-66
2021/12/29 00:35:42;;;;;;;9.00;2.15;;;;;;;;;;4998905;28;20149;-68
2021/12/29 00:38:10;;;;;;;6.53;1.65;;;;;;;;;;5001658;28;20058;-68
2021/12/29 00:40:38;;;;;;;8.65;1.40;;;;;;;;;;4984049;28;20050;-72
2021/12/29 00:43:08;;;;;;;6.60;1.50;;;;;;;;;;5000612;28;20146;-65
2021/12/29 00:45:36;;;;;;;8.57;1.92;;;;;;;;;;4997098;28;20050;-64
2021/12/29 00:48:11;;;;;;;8.68;2.00;;;;;;;;;;4998085;28;20255;-70
2021/12/29 00:50:38;;;;;;;7.38;1.70;;;;;;;;;;5000928;28;20132;-63
2021/12/29 00:53:04;;;;;;;8.27;2.28;;;;;;;;;;5003864;28;20053;-65
2021/12/29 00:55:31;;;;;;;7.55;1.50;;;;;;;;;;5019832;28;20061;-70
2021/12/29 00:57:57;;;;;;;5.50;1.38;;;;;;;;;;5000145;28;20049;-63
2021/12/29 01:00:24;;;;;;;9.18;1.83;;;;;;;;;;4998854;28;20076;-66
2021/12/29 01:02:51;;;;;;;4.65;1.40;;;;;;;;;;5018751;28;20052;-64
2021/12/29 01:05:19;;;;;;;7.90;1.70;;;;;;;;;;5017048;28;20058;-65
2021/12/29 01:07:49;;;;;;;8.13;1.80;;;;;;;;;;5003317;28;20479;-66
2021/12/29 01:10:16;;;;;;;8.23;1.70;;;;;;;;;;5014350;28;20505;-64
2021/12/29 01:12:51;;;;;;;7.60;1.90;;;;;;;;;;5016755;28;20053;-70
2021/12/29 01:15:24;;;;;;;9.20;1.60;;;;;;;;;;4998677;28;20049;-65
2021/12/29 01:17:51;;;;;;;5.97;1.50;;;;;;;;;;5020126;28;20080;-68
2021/12/29 01:20:19;;;;;;;7.65;1.75;;;;;;;;;;4999569;28;20073;-68
2021/12/29 01:22:46;;;;;;;6.30;1.50;;;;;;;;;;5018600;28;20041;-66
2021/12/29 01:25:12;;;;;;;7.97;1.63;;;;;;;;;;4999123;28;20107;-68
2021/12/29 01:27:38;;;;;;;6.55;1.58;;;;;;;;;;5001901;28;20076;-64
2021/12/29 01:30:09;;;;;;;10.93;1.90;;;;;;;;;;5018544;28;20243;-66
2021/12/29 01:32:39;;;;;;;11.93;2.22;;;;;;;;;;5017011;28;20514;-69
2021/12/29 01:35:07;;;;;;;5.28;1.50;;;;;;;;;;5019581;28;20053;-70
2021/12/29 01:37:34;;;;;;;8.35;1.73;;;;;;;;;;5019144;28;20502;-72
2021/12/29 01:40:01;;;;;;;8.68;1.42;;;;;;;;;;4987634;28;20053;-71
2021/12/29 01:42:28;;;;;;;6.95;1.70;;;;;;;;;;5002475;28;20057;-71
2021/12/29 01:44:54;;;;;;;6.45;1.75;;;;;;;;;;5016674;28;20482;-71
2021/12/29 01:47:29;;;;;;;9.95;1.60;;;;;;;;;;5019489;28;20046;-72
2021/12/29 01:49:56;;;;;;;8.07;1.60;;;;;;;;;;4999763;28;20053;-71
2021/12/29 01:52:28;;;;;;;6.70;1.77;;;;;;;;;;5020175;28;20454;-71
2021/12/29 01:54:55;;;;;;;11.27;1.90;;;;;;;;;;5017441;28;20120;-72
2021/12/29 01:57:22;;;;;;;9.05;1.95;;;;;;;;;;5001047;28;20310;-71
2021/12/29 01:59:48;;;;;;;7.18;1.92;;;;;;;;;;4999718;28;20053;-73
2021/12/29 02:02:14;;;;;;;9.70;1.60;;;;;;;;;;4998161;28;20049;-73
2021/12/29 02:04:42;;;;;;;8.10;1.70;;;;;;;;;;5018663;28;20091;-70
2021/12/29 02:07:08;;;;;;;7.32;1.63;;;;;;;;;;4983264;28;20054;-72
2021/12/29 02:09:35;;;;;;;4.95;1.40;;;;;;;;;;5001735;28;20065;-71
2021/12/29 02:12:02;;;;;;;5.63;1.40;;;;;;;;;;5020303;28;20053;-72
2021/12/29 02:14:28;;;;;;;6.07;1.52;;;;;;;;;;5018484;28;20149;-72
2021/12/29 02:16:55;;;;;;;6.35;1.83;;;;;;;;;;4999546;28;20084;-71
2021/12/29 02:19:23;;;;;;;6.45;1.73;;;;;;;;;;5002830;28;20049;-73
2021/12/29 02:22:13;;;;;;;7.65;1.60;;;;;;;;;;5002885;28;20052;-74
2021/12/29 02:24:41;;;;;;;8.00;1.70;;;;;;;;;;5002903;28;20061;-74
2021/12/29 02:27:11;;;;;;;8.18;1.52;;;;;;;;;;5001505;28;20074;-73
2021/12/29 02:29:38;;;;;;;6.72;1.80;;;;;;;;;;5017407;28;20372;-70
2021/12/29 02:32:04;;;;;;;6.45;1.60;;;;;;;;;;5000544;28;20108;-73
2021/12/29 02:34:32;;;;;;;6.95;1.58;;;;;;;;;;5015327;28;20049;-73
2021/12/29 02:37:02;;;;;;;8.30;1.73;;;;;;;;;;5001118;28;20175;-73
2021/12/29 02:39:31;;;;;;;6.10;1.50;;;;;;;;;;5021073;28;20049;-71
2021/12/29 02:42:03;;;;;;;5.18;1.10;;;;;;;;;;5020381;28;20045;-71
2021/12/29 02:44:30;;;;;;;5.32;1.42;;;;;;;;;;5020131;28;20061;-75
2021/12/29 02:46:58;;;;;;;8.00;1.80;;;;;;;;;;5017292;28;20235;-72
2021/12/29 02:49:25;;;;;;;10.75;1.58;;;;;;;;;;5022770;28;20068;-70
2021/12/29 02:51:52;;;;;;;7.65;1.50;;;;;;;;;;5017381;28;20135;-71
2021/12/29 02:54:19;;;;;;;8.70;1.75;;;;;;;;;;5019025;28;20053;-72
2021/12/29 02:56:48;;;;;;;7.68;2.05;;;;;;;;;;5000213;28;20049;-77
2021/12/29 02:59:15;;;;;;;9.13;1.85;;;;;;;;;;5001959;28;20486;-72
2021/12/29 03:01:42;;;;;;;5.78;1.40;;;;;;;;;;4984327;28;20571;-75
2021/12/29 03:04:09;;;;;;;6.55;1.40;;;;;;;;;;5016215;28;20956;-70
2021/12/29 03:06:35;;;;;;;8.50;1.60;;;;;;;;;;5015783;28;20110;-71
2021/12/29 03:09:05;;;;;;;8.80;1.52;;;;;;;;;;5019076;28;20247;-71
2021/12/29 03:11:31;;;;;;;4.07;1.30;;;;;;;;;;4996958;28;20056;-73
2021/12/29 03:13:58;;;;;;;7.95;1.75;;;;;;;;;;5018085;28;20440;-72
2021/12/29 03:16:24;;;;;;;9.45;1.63;;;;;;;;;;5015632;28;20231;-72
2021/12/29 03:18:51;;;;;;;5.85;1.50;;;;;;;;;;5014380;28;20049;-70
2021/12/29 03:21:17;;;;;;;5.13;1.40;;;;;;;;;;5017031;28;20049;-72
2021/12/29 03:23:44;;;;;;;6.53;1.50;;;;;;;;;;5017423;28;20567;-71
2021/12/29 03:26:10;;;;;;;9.43;1.70;;;;;;;;;;5015594;28;20156;-73
2021/12/29 03:28:39;;;;;;;8.95;2.25;;;;;;;;;;5001333;28;20602;-71
2021/12/29 03:31:11;;;;;;;7.32;1.42;;;;;;;;;;5017131;28;20053;-70
2021/12/29 03:33:38;;;;;;;7.93;1.38;;;;;;;;;;5000803;28;20053;-71
2021/12/29 03:36:05;;;;;;;7.07;1.70;;;;;;;;;;5015277;28;20111;-73
2021/12/29 03:38:35;;;;;;;10.82;1.85;;;;;;;;;;5000583;28;20066;-71
2021/12/29 03:41:02;;;;;;;7.70;1.75;;;;;;;;;;4994994;28;20058;-73
2021/12/29 03:43:29;;;;;;;5.43;1.50;;;;;;;;;;5019078;28;20125;-73
2021/12/29 03:45:56;;;;;;;9.65;1.60;;;;;;;;;;5020690;28;20415;-71
2021/12/29 03:48:25;;;;;;;6.55;1.50;;;;;;;;;;4986871;28;20041;-70
2021/12/29 03:50:51;;;;;;;7.38;1.30;;;;;;;;;;5022164;28;20406;-69
2021/12/29 03:53:18;;;;;;;6.95;1.58;;;;;;;;;;5021352;28;20053;-71
2021/12/29 03:55:48;;;;;;;6.63;1.30;;;;;;;;;;5004303;28;20128;-71
2021/12/29 03:58:18;;;;;;;6.03;1.55;;;;;;;;;;5018669;28;20042;-71
2021/12/29 04:00:46;;;;;;;6.78;1.70;;;;;;;;;;5003463;28;20148;-72
2021/12/29 04:03:12;;;;;;;8.20;1.48;;;;;;;;;;5002675;28;20064;-74
2021/12/29 04:05:40;;;;;;;8.60;1.85;;;;;;;;;;5005337;28;20522;-73
2021/12/29 04:08:06;;;;;;;5.90;1.73;;;;;;;;;;5002090;28;20111;-70
2021/12/29 04:10:33;;;;;;;6.57;1.60;;;;;;;;;;5003342;28;20061;-72
2021/12/29 04:12:59;;;;;;;6.80;1.95;;;;;;;;;;5003183;28;20049;-70
2021/12/29 04:15:27;;;;;;;5.97;1.98;;;;;;;;;;5021434;28;20045;-72
2021/12/29 04:17:58;;;;;;;5.80;1.65;;;;;;;;;;5003161;28;20761;-73
2021/12/29 04:23:13;;;;;;;7.30;1.63;;;;;;;;;;5023469;28;20558;-72
2021/12/29 04:25:41;;;;;;;5.80;1.33;;;;;;;;;;5004026;28;20096;-73
2021/12/29 04:28:14;;;;;;;6.57;1.65;;;;;;;;;;5003096;28;20451;-70
2021/12/29 04:30:41;;;;;;;4.70;1.45;;;;;;;;;;5020430;28;20045;-71
2021/12/29 04:33:08;;;;;;;10.07;2.15;;;;;;;;;;5020338;28;20110;-70
2021/12/29 04:35:34;;;;;;;7.05;1.25;;;;;;;;;;5004335;28;20587;-70
2021/12/29 04:38:01;;;;;;;6.38;1.70;;;;;;;;;;5002514;28;20062;-71
2021/12/29 04:40:27;;;;;;;6.22;1.40;;;;;;;;;;5003866;28;20060;-71
2021/12/29 04:42:53;;;;;;;6.70;1.98;;;;;;;;;;5021069;28;20041;-72
2021/12/29 04:45:19;;;;;;;8.13;1.70;;;;;;;;;;4984550;28;20064;-71
2021/12/29 04:47:48;;;;;;;8.57;1.48;;;;;;;;;;5000966;28;20369;-72
2021/12/29 04:50:26;;;;;;;7.95;1.75;;;;;;;;;;5001705;28;20140;-74
2021/12/29 04:52:57;;;;;;;4.47;1.58;;;;;;;;;;5018802;28;20061;-71
2021/12/29 04:55:24;;;;;;;6.07;1.58;;;;;;;;;;5002401;28;20044;-71
2021/12/29 04:57:51;;;;;;;7.25;1.83;;;;;;;;;;5019205;28;20194;-72
2021/12/29 05:00:21;;;;;;;6.10;2.08;;;;;;;;;;4986758;28;20135;-73
2021/12/29 05:02:48;;;;;;;7.20;1.88;;;;;;;;;;5022238;28;20045;-72
2021/12/29 05:05:27;;;;;;;7.53;1.83;;;;;;;;;;5020440;28;20531;-73
2021/12/29 05:10:38;;;;;;;8.63;1.70;;;;;;;;;;5020441;28;20126;-70
2021/12/29 05:13:05;;;;;;;7.65;2.00;;;;;;;;;;5002122;28;20628;-71
2021/12/29 05:15:31;;;;;;;5.63;1.60;;;;;;;;;;5018235;28;20580;-71
2021/12/29 05:17:59;;;;;;;6.80;1.70;;;;;;;;;;5018250;28;20452;-73
2021/12/29 05:20:27;;;;;;;6.95;2.00;;;;;;;;;;5019235;28;20053;-72
2021/12/29 05:22:54;;;;;;;7.95;2.28;;;;;;;;;;5016457;28;20037;-71
2021/12/29 05:25:21;;;;;;;8.65;1.80;;;;;;;;;;5020657;28;20526;-72
2021/12/29 05:27:48;;;;;;;8.60;1.90;;;;;;;;;;5001675;28;20396;-70
2021/12/29 05:30:15;;;;;;;9.77;1.90;;;;;;;;;;5017259;28;20045;-71
2021/12/29 05:32:41;;;;;;;6.07;1.42;;;;;;;;;;5019098;28;20060;-72
2021/12/29 05:35:08;;;;;;;3.20;1.20;;;;;;;;;;4985221;28;20053;-71
2021/12/29 05:37:35;;;;;;;8.00;2.13;;;;;;;;;;5017906;28;20049;-69
2021/12/29 05:40:01;;;;;;;7.15;1.85;;;;;;;;;;5002902;28;20487;-72
2021/12/29 05:42:27;;;;;;;7.88;1.70;;;;;;;;;;5001146;28;20042;-70
2021/12/29 05:44:53;;;;;;;8.75;1.40;;;;;;;;;;5019633;28;20160;-73
2021/12/29 05:47:20;;;;;;;8.60;1.73;;;;;;;;;;5018551;28;20073;-74
2021/12/29 05:49:47;;;;;;;7.50;1.75;;;;;;;;;;5003173;28;20045;-73
2021/12/29 05:52:15;;;;;;;7.32;1.70;;;;;;;;;;5014926;28;20049;-73
2021/12/29 05:54:42;;;;;;;9.85;1.83;;;;;;;;;;5003155;28;20111;-70
2021/12/29 05:57:08;;;;;;;4.60;1.60;;;;;;;;;;5020258;28;20053;-70
2021/12/29 05:59:35;;;;;;;12.48;2.33;;;;;;;;;;5003202;28;20076;-77
2021/12/29 06:02:01;;;;;;;4.43;1.92;;;;;;;;;;5017460;28;20128;-71
2021/12/29 06:04:28;;;;;;;5.13;1.70;;;;;;;;;;5003151;28;20065;-69
2021/12/29 06:06:54;;;;;;;11.55;1.67;;;;;;;;;;5016943;28;20045;-74
2021/12/29 06:09:20;;;;;;;8.63;1.88;;;;;;;;;;5019856;28;20499;-73
2021/12/29 06:11:46;;;;;;;6.35;2.13;;;;;;;;;;5018296;28;20080;-70
2021/12/29 06:14:13;;;;;;;9.68;1.58;;;;;;;;;;5021327;28;20061;-73
2021/12/29 06:16:39;;;;;;;8.25;1.75;;;;;;;;;;5020356;28;20453;-72
2021/12/29 06:19:05;;;;;;;5.55;1.95;;;;;;;;;;5020065;28;20531;-72
2021/12/29 06:21:32;;;;;;;6.70;1.90;;;;;;;;;;5001659;28;20072;-71
2021/12/29 06:23:58;;;;;;;5.63;1.45;;;;;;;;;;5019041;28;20403;-71
2021/12/29 06:26:24;;;;;;;5.32;1.88;;;;;;;;;;5018825;28;20136;-73
2021/12/29 06:28:51;;;;;;;10.63;1.90;;;;;;;;;;5015268;28;20112;-70
2021/12/29 06:31:18;;;;;;;6.88;1.73;;;;;;;;;;5016797;28;20053;-73
2021/12/29 06:33:46;;;;;;;10.07;3.25;;;;;;;;;;4998746;28;20053;-72
2021/12/29 06:36:12;;;;;;;8.27;1.95;;;;;;;;;;5018826;28;20054;-72
2021/12/29 06:38:38;;;;;;;7.13;1.40;;;;;;;;;;5016937;28;20447;-70
2021/12/29 06:41:05;;;;;;;5.35;1.48;;;;;;;;;;5015807;28;20053;-70
2021/12/29 06:43:31;;;;;;;6.43;1.80;;;;;;;;;;5018614;28;20539;-71
2021/12/29 06:45:57;;;;;;;7.70;1.92;;;;;;;;;;4985526;28;20140;-71
2021/12/29 06:48:24;;;;;;;6.35;1.70;;;;;;;;;;5013960;28;20041;-75
2021/12/29 06:50:50;;;;;;;13.60;2.40;;;;;;;;;;5020140;28;20046;-73
2021/12/29 06:53:16;;;;;;;9.75;2.13;;;;;;;;;;5002040;28;20065;-72
2021/12/29 06:55:43;;;;;;;10.88;1.92;;;;;;;;;;5000055;28;20049;-74
2021/12/29 06:58:10;;;;;;;11.18;1.73;;;;;;;;;;5016075;28;20172;-72
2021/12/29 07:00:37;;;;;;;6.45;2.25;;;;;;;;;;5016522;28;20499;-70
2021/12/29 07:03:04;;;;;;;12.13;1.98;;;;;;;;;;5005517;28;20102;-71
2021/12/29 07:05:30;;;;;;;7.70;1.88;;;;;;;;;;5002229;28;20085;-71
2021/12/29 07:07:57;;;;;;;11.13;2.30;;;;;;;;;;4993161;28;20072;-71
2021/12/29 07:10:24;;;;;;;7.47;1.88;;;;;;;;;;5019246;28;20045;-76
2021/12/29 07:12:51;;;;;;;11.00;2.45;;;;;;;;;;5019873;28;20152;-74
2021/12/29 07:15:17;;;;;;;10.38;2.17;;;;;;;;;;5002082;28;20112;-73
2021/12/29 07:17:44;;;;;;;5.85;1.90;;;;;;;;;;5020808;28;20057;-74
2021/12/29 07:20:10;;;;;;;8.95;2.20;;;;;;;;;;4988268;28;20122;-71
2021/12/29 07:22:37;;;;;;;8.93;1.90;;;;;;;;;;5006371;28;20065;-73
2021/12/29 07:25:03;;;;;;;6.82;1.98;;;;;;;;;;5022919;28;20379;-71
2021/12/29 07:27:30;;;;;;;9.82;2.17;;;;;;;;;;5020769;28;20486;-74
2021/12/29 07:29:56;;;;;;;8.77;2.10;;;;;;;;;;5005860;28;20106;-73
2021/12/29 07:32:22;;;;;;;7.55;2.00;;;;;;;;;;5005480;28;20049;-72
2021/12/29 07:34:49;;;;;;;13.38;2.30;;;;;;;;;;5005025;28;20049;-73
2021/12/29 07:37:15;;;;;;;8.27;2.33;;;;;;;;;;4988327;28;20140;-76
2021/12/29 07:39:41;;;;;;;9.80;3.08;;;;;;;;;;5003779;28;20057;-71
2021/12/29 07:42:08;;;;;;;13.43;2.30;;;;;;;;;;5023821;28;20037;-71
2021/12/29 07:44:35;;;;;;;11.00;2.20;;;;;;;;;;5003385;28;20100;-72
2021/12/29 07:47:02;;;;;;;6.72;1.83;;;;;;;;;;5018860;28;20490;-75
2021/12/29 07:49:28;;;;;;;7.22;2.35;;;;;;;;;;5018706;28;20056;-74
2021/12/29 07:51:55;;;;;;;8.35;2.20;;;;;;;;;;5021161;28;20041;-73
2021/12/29 07:54:22;;;;;;;10.48;2.60;;;;;;;;;;5021616;28;20080;-73
2021/12/29 07:56:49;;;;;;;5.80;2.28;;;;;;;;;;5018778;28;20049;-67
2021/12/29 07:59:15;;;;;;;6.95;2.08;;;;;;;;;;5001137;28;20432;-66
2021/12/29 08:01:42;;;;;;;7.25;1.88;;;;;;;;;;4998023;28;20827;-65
2021/12/29 08:04:14;;;;;;;8.13;2.03;;;;;;;;;;5015352;28;20137;-67
2021/12/29 08:06:40;;;;;;;7.40;2.00;;;;;;;;;;5004564;28;20586;-64
2021/12/29 08:09:07;;;;;;;7.68;2.28;;;;;;;;;;5019790;28;20181;-64
2021/12/29 08:11:34;;;;;;;7.45;2.05;;;;;;;;;;5017608;28;20053;-65
2021/12/29 08:14:00;;;;;;;16.75;2.67;;;;;;;;;;5001027;28;20475;-64
2021/12/29 08:16:27;;;;;;;12.60;2.30;;;;;;;;;;5016719;28;20518;-68
2021/12/29 08:18:54;;;;;;;10.10;2.97;;;;;;;;;;5021384;28;20555;-67
2021/12/29 08:21:20;;;;;;;10.02;2.72;;;;;;;;;;5017053;28;20037;-72
2021/12/29 08:23:46;;;;;;;18.58;4.28;;;;;;;;;;5001873;28;20073;-68
2021/12/29 08:26:12;;;;;;;14.82;4.88;;;;;;;;;;4987512;28;20108;-69
2021/12/29 08:28:39;;;;;;;21.10;5.65;;;;;;;;;;5019557;28;20045;-64
2021/12/29 08:31:05;;;;;;;15.50;5.15;;;;;;;;;;4999699;28;20286;-63
2021/12/29 08:33:31;;;;;;;11.90;3.55;;;;;;;;;;5000031;28;20037;-66
2021/12/29 08:35:57;;;;;;;16.88;3.53;;;;;;;;;;5016930;28;20067;-68
2021/12/29 08:38:24;;;;;;;12.43;3.60;;;;;;;;;;5018543;28;20553;-68
2021/12/29 08:40:51;;;;;;;10.20;2.38;;;;;;;;;;5019899;28;20053;-68
2021/12/29 08:43:18;;;;;;;8.15;2.60;;;;;;;;;;5021590;28;20045;-69
2021/12/29 08:45:46;;;;;;;9.20;2.28;;;;;;;;;;5000803;28;20053;-69
2021/12/29 08:48:13;;;;;;;7.03;2.00;;;;;;;;;;4999936;28;20060;-67
2021/12/29 08:50:40;;;;;;;6.07;2.35;;;;;;;;;;5020243;28;20422;-64
2021/12/29 08:53:08;;;;;;;10.60;2.85;;;;;;;;;;5019202;28;20061;-69
2021/12/29 08:55:37;;;;;;;12.23;2.75;;;;;;;;;;5018069;28;20045;-63
2021/12/29 08:58:06;;;;;;;8.68;2.00;;;;;;;;;;5017635;28;20049;-69
2021/12/29 09:00:33;;;;;;;16.55;2.42;;;;;;;;;;5016011;28;20534;-66
2021/12/29 09:03:00;;;;;;;12.40;3.33;;;;;;;;;;5016275;28;20485;-65
2021/12/29 09:05:27;;;;;;;9.02;2.50;;;;;;;;;;5000960;28;20064;-69
2021/12/29 09:07:53;;;;;;;9.85;3.28;;;;;;;;;;5014695;28;20071;-65
2021/12/29 09:10:20;;;;;;;15.05;3.40;;;;;;;;;;5014539;28;20065;-66
2021/12/29 09:12:48;;;;;;;13.07;3.47;;;;;;;;;;5017410;28;20510;-68
2021/12/29 09:15:15;;;;;;;9.80;3.45;;;;;;;;;;5003295;28;20053;-66
2021/12/29 09:17:41;;;;;;;7.80;2.70;;;;;;;;;;5014919;28;20049;-68
2021/12/29 09:20:15;;;;;;;7.85;3.00;;;;;;;;;;5014675;28;20171;-70
2021/12/29 09:22:42;;;;;;;8.02;2.30;;;;;;;;;;5012199;28;20050;-65
2021/12/29 09:25:09;;;;;;;5.28;2.40;;;;;;;;;;5015142;28;20526;-67
2021/12/29 09:27:35;;;;;;;8.25;2.13;;;;;;;;;;5014129;28;20569;-66
2021/12/29 09:30:03;;;;;;;9.00;3.40;;;;;;;;;;5014798;28;20653;-70
2021/12/29 09:32:31;;;;;;;8.13;2.15;;;;;;;;;;5015682;28;20099;-70
2021/12/29 09:34:59;;;;;;;8.27;1.95;;;;;;;;;;4984580;28;20148;-68
2021/12/29 09:37:27;;;;;;;7.47;2.13;;;;;;;;;;5013082;28;20053;-70
2021/12/29 09:39:53;;;;;;;4.45;1.80;;;;;;;;;;4998127;28;20049;-74
2021/12/29 09:42:20;;;;;;;4.38;1.70;;;;;;;;;;5014407;28;20041;-73
2021/12/29 09:44:47;;;;;;;6.18;1.60;;;;;;;;;;5016000;28;20084;-72
2021/12/29 09:47:13;;;;;;;6.57;1.73;;;;;;;;;;4996648;28;20136;-69
2021/12/29 09:49:40;;;;;;;5.07;1.40;;;;;;;;;;5014598;28;20450;-68
2021/12/29 09:52:06;;;;;;;4.15;1.80;;;;;;;;;;5016072;28;20037;-68
2021/12/29 09:54:32;;;;;;;9.30;2.10;;;;;;;;;;4998670;28;20507;-67
2021/12/29 09:57:00;;;;;;;7.55;2.10;;;;;;;;;;4998779;28;20046;-68
2021/12/29 09:59:28;;;;;;;12.20;2.67;;;;;;;;;;5015058;28;20164;-74
2021/12/29 10:01:57;;;;;;;9.65;2.63;;;;;;;;;;5016257;28;20515;-69
2021/12/29 10:04:25;;;;;;;7.78;1.85;;;;;;;;;;4999078;28;20443;-70
2021/12/29 10:06:51;;;;;;;6.78;2.08;;;;;;;;;;5017339;28;20128;-69
2021/12/29 10:09:19;;;;;;;7.75;2.13;;;;;;;;;;5018058;28;20450;-71
2021/12/29 10:11:46;;;;;;;7.35;1.80;;;;;;;;;;5018650;28;20684;-65
2021/12/29 10:14:15;;;;;;;8.75;1.65;;;;;;;;;;5017393;28;20064;-65
2021/12/29 10:16:45;;;;;;;10.02;2.17;;;;;;;;;;5015843;28;20164;-72
2021/12/29 10:19:14;;;;;;;12.15;1.83;;;;;;;;;;5017346;28;20143;-69
2021/12/29 10:21:45;;;;;;;5.45;1.98;;;;;;;;;;5018539;28;20136;-66
2021/12/29 10:24:12;;;;;;;10.70;1.83;;;;;;;;;;5011681;28;20057;-73
2021/12/29 10:26:43;;;;;;;3.83;1.73;;;;;;;;;;5016905;28;20519;-65
2021/12/29 10:29:13;;;;;;;6.72;1.95;;;;;;;;;;5017681;28;20058;-67
2021/12/29 10:31:45;;;;;;;8.82;1.98;;;;;;;;;;4996942;28;20136;-66
2021/12/29 10:34:22;;;;;;;7.38;1.80;;;;;;;;;;5015923;28;20053;-68
2021/12/29 10:36:55;;;;;;;6.40;1.70;;;;;;;;;;5015880;28;20083;-69
2021/12/29 10:39:28;;;;;;;2.25;1.27;;;;;;;;;;5014815;28;20457;-68
2021/12/29 10:42:09;;;;;;;5.90;1.95;;;;;;;;;;5016284;28;20045;-67
2021/12/29 10:44:42;;;;;;;5.53;1.98;;;;;;;;;;5017601;28;20483;-65
2021/12/29 10:47:14;;;;;;;8.05;1.88;;;;;;;;;;5016656;28;20046;-68
2021/12/29 10:50:01;;;;;;;5.07;1.48;;;;;;;;;;5018945;28;20581;-68
2021/12/29 10:52:38;;;;;;;6.95;2.05;;;;;;;;;;4980742;28;20475;-71
2021/12/29 10:55:11;;;;;;;6.75;2.35;;;;;;;;;;4998906;28;20051;-69
2021/12/29 10:57:38;;;;;;;9.43;2.03;;;;;;;;;;5000342;28;20424;-65
2021/12/29 11:00:08;;;;;;;9.23;1.77;;;;;;;;;;4999032;28;20041;-70
2021/12/29 11:02:35;;;;;;;5.50;2.03;;;;;;;;;;5014284;28;20562;-68
2021/12/29 11:05:07;;;;;;;8.63;1.90;;;;;;;;;;5017322;28;20057;-66
2021/12/29 11:07:34;;;;;;;7.00;1.67;;;;;;;;;;5014027;28;20045;-71
2021/12/29 11:10:15;;;;;;;6.30;1.67;;;;;;;;;;4982835;28;20049;-72
2021/12/29 11:12:50;;;;;;;7.80;1.90;;;;;;;;;;4980926;28;20152;-71
2021/12/29 11:15:26;;;;;;;6.15;1.80;;;;;;;;;;5015086;28;20076;-71
2021/12/29 11:17:54;;;;;;;8.45;1.98;;;;;;;;;;5016209;28;20464;-71
2021/12/29 11:20:24;;;;;;;6.07;1.63;;;;;;;;;;5005247;28;20133;-68
2021/12/29 11:23:03;;;;;;;5.30;1.90;;;;;;;;;;5024704;28;20099;-70
2021/12/29 11:25:30;;;;;;;5.75;1.80;;;;;;;;;;5029524;28;20338;-67
2021/12/29 11:27:57;;;;;;;5.03;1.65;;;;;;;;;;5026569;28;20127;-65
2021/12/29 11:30:23;;;;;;;8.10;1.67;;;;;;;;;;5025016;28;20053;-75
2021/12/29 11:32:50;;;;;;;5.93;1.95;;;;;;;;;;5009472;28;20069;-66
2021/12/29 11:35:23;;;;;;;6.65;2.00;;;;;;;;;;5008547;28;20050;-68
2021/12/29 11:37:56;;;;;;;8.88;2.10;;;;;;;;;;5025265;28;20056;-66
2021/12/29 11:40:28;;;;;;;17.10;2.30;;;;;;;;;;4990223;28;20049;-68
2021/12/29 11:42:56;;;;;;;9.10;1.98;;;;;;;;;;5024244;28;20038;-68
2021/12/29 11:45:25;;;;;;;6.43;1.95;;;;;;;;;;5008598;28;20061;-70
2021/12/29 11:47:52;;;;;;;8.30;1.98;;;;;;;;;;5011479;28;20055;-67
2021/12/29 11:50:26;;;;;;;10.75;2.00;;;;;;;;;;5006758;28;20050;-71
2021/12/29 11:53:09;;;;;;;5.13;2.00;;;;;;;;;;5002947;28;20527;-67
2021/12/29 11:55:42;;;;;;;7.22;1.98;;;;;;;;;;5021807;28;20502;-71
2021/12/29 11:58:15;;;;;;;4.88;1.95;;;;;;;;;;5000139;28;20053;-66
2021/12/29 12:00:44;;;;;;;7.72;2.00;;;;;;;;;;4998942;28;20049;-68
2021/12/29 12:03:14;;;;;;;7.65;1.98;;;;;;;;;;5018591;28;20053;-72
2021/12/29 12:05:44;;;;;;;6.38;2.00;;;;;;;;;;5022537;28;20784;-75
2021/12/29 12:08:14;;;;;;;3.08;1.50;;;;;;;;;;5020477;28;20058;-65
2021/12/29 12:10:41;;;;;;;7.57;1.90;;;;;;;;;;5019079;28;20447;-71
2021/12/29 12:13:24;;;;;;;4.63;1.77;;;;;;;;;;5024078;28;20096;-67
2021/12/29 12:16:03;;;;;;;6.15;1.83;;;;;;;;;;5010819;28;20052;-66
2021/12/29 12:18:50;;;;;;;8.07;1.90;;;;;;;;;;5011336;28;20501;-69
2021/12/29 12:21:24;;;;;;;8.25;1.88;;;;;;;;;;5028156;28;20046;-70
2021/12/29 12:23:52;;;;;;;6.53;1.83;;;;;;;;;;5032831;28;20050;-70
2021/12/29 12:26:22;;;;;;;5.15;2.10;;;;;;;;;;5004612;28;20107;-74
2021/12/29 12:28:51;;;;;;;7.40;1.88;;;;;;;;;;5023034;28;20054;-68
2021/12/29 12:31:27;;;;;;;8.32;1.80;;;;;;;;;;5020705;28;20057;-73
2021/12/29 12:34:06;;;;;;;7.97;2.03;;;;;;;;;;5020005;28;20106;-73
2021/12/29 12:36:33;;;;;;;6.53;1.90;;;;;;;;;;5018874;28;20042;-75
2021/12/29 12:39:18;;;;;;;11.88;2.13;;;;;;;;;;5021214;28;20046;-73
2021/12/29 12:41:50;;;;;;;5.78;1.83;;;;;;;;;;5016863;28;20437;-69
2021/12/29 12:44:19;;;;;;;8.27;2.53;;;;;;;;;;5020809;28;20071;-70
2021/12/29 12:46:47;;;;;;;8.80;2.60;;;;;;;;;;5001096;28;20058;-68
2021/12/29 12:49:16;;;;;;;10.43;2.50;;;;;;;;;;5020482;28;20053;-66
2021/12/29 12:52:00;;;;;;;7.15;2.85;;;;;;;;;;5018746;28;21048;-65
2021/12/29 12:54:29;;;;;;;5.05;2.00;;;;;;;;;;5019492;28;20057;-73
2021/12/29 12:56:58;;;;;;;6.05;1.60;;;;;;;;;;5018243;28;20417;-74
2021/12/29 12:59:44;;;;;;;6.88;1.90;;;;;;;;;;5001853;28;20064;-70
2021/12/29 13:02:17;;;;;;;4.72;2.00;;;;;;;;;;5003041;28;20050;-67
2021/12/29 13:05:14;;;;;;;3.17;1.77;;;;;;;;;;5000951;28;20613;-68
2021/12/29 13:07:42;;;;;;;7.22;2.03;;;;;;;;;;5002578;28;20064;-69
2021/12/29 13:10:11;;;;;;;7.22;2.10;;;;;;;;;;4986247;28;20041;-69
2021/12/29 13:12:40;;;;;;;5.25;1.80;;;;;;;;;;5017503;28;20049;-65
2021/12/29 13:15:14;;;;;;;5.35;1.70;;;;;;;;;;5029252;28;20124;-67
2021/12/29 13:17:42;;;;;;;12.60;2.33;;;;;;;;;;5018589;28;20048;-72
2021/12/29 13:20:10;;;;;;;7.05;1.90;;;;;;;;;;5006578;28;20902;-69
2021/12/29 13:22:36;;;;;;;7.13;2.13;;;;;;;;;;5027604;28;20041;-73
2021/12/29 13:25:12;;;;;;;5.80;2.20;;;;;;;;;;5025225;28;20053;-74
2021/12/29 13:27:41;;;;;;;11.95;2.03;;;;;;;;;;5005116;28;20049;-70
2021/12/29 13:30:15;;;;;;;5.97;2.00;;;;;;;;;;5030094;28;20087;-65
2021/12/29 13:33:07;;;;;;;5.18;2.28;;;;;;;;;;5031644;28;20529;-68
2021/12/29 13:35:36;;;;;;;5.32;1.95;;;;;;;;;;5028388;28;20057;-66
2021/12/29 13:38:08;;;;;;;10.07;2.30;;;;;;;;;;5027327;28;20059;-76
2021/12/29 13:40:36;;;;;;;4.97;1.83;;;;;;;;;;4995557;28;20049;-69
2021/12/29 13:43:06;;;;;;;6.75;2.22;;;;;;;;;;5014219;28;20415;-66
2021/12/29 13:45:34;;;;;;;5.93;1.85;;;;;;;;;;5011872;28;20057;-67
2021/12/29 13:48:02;;;;;;;7.82;2.33;;;;;;;;;;5029178;28;20398;-76
2021/12/29 13:50:29;;;;;;;6.03;1.90;;;;;;;;;;5031264;28;20056;-72
2021/12/29 13:53:00;;;;;;;9.68;1.73;;;;;;;;;;5032879;28;20046;-66
2021/12/29 13:55:29;;;;;;;6.05;1.98;;;;;;;;;;5010907;28;20062;-70
2021/12/29 13:57:57;;;;;;;6.97;1.90;;;;;;;;;;5008030;28;20052;-65
2021/12/29 14:00:25;;;;;;;6.57;1.83;;;;;;;;;;5027074;28;20413;-73
2021/12/29 14:02:51;;;;;;;3.97;1.50;;;;;;;;;;5011345;28;20481;-66
2021/12/29 14:05:17;;;;;;;6.05;1.80;;;;;;;;;;5009766;28;20834;-65
2021/12/29 14:07:44;;;;;;;6.50;2.63;;;;;;;;;;5029788;28;20050;-67
2021/12/29 14:10:13;;;;;;;15.20;2.13;;;;;;;;;;5029227;28;20092;-69
2021/12/29 14:12:41;;;;;;;7.43;2.35;;;;;;;;;;5028762;28;20141;-66
2021/12/29 14:15:12;;;;;;;4.60;1.58;;;;;;;;;;5030459;28;20042;-68
2021/12/29 14:17:44;;;;;;;4.13;2.08;;;;;;;;;;5026392;28;20052;-65
2021/12/29 14:20:15;;;;;;;19.58;3.67;;;;;;;;;;5027441;28;20084;-66
2021/12/29 14:22:42;;;;;;;9.77;2.45;;;;;;;;;;5025399;28;20057;-75
2021/12/29 14:25:11;;;;;;;5.80;2.00;;;;;;;;;;5028269;28;20045;-70
2021/12/29 14:27:38;;;;;;;8.07;1.98;;;;;;;;;;5027482;28;20440;-69
2021/12/29 14:30:21;;;;;;;6.28;2.17;;;;;;;;;;4996081;28;20042;-65
2021/12/29 14:32:57;;;;;;;6.75;1.95;;;;;;;;;;5011105;28;20045;-67
2021/12/29 14:35:25;;;;;;;9.43;2.53;;;;;;;;;;5008770;28;20049;-71
2021/12/29 14:37:54;;;;;;;6.38;1.80;;;;;;;;;;5022931;28;20053;-74
2021/12/29 14:40:29;;;;;;;16.35;2.72;;;;;;;;;;5010338;28;20515;-78
2021/12/29 14:43:17;;;;;;;9.10;2.20;;;;;;;;;;5025235;28;20053;-73
2021/12/29 14:45:59;;;;;;;8.57;2.00;;;;;;;;;;5025224;28;20049;-67
2021/12/29 14:48:26;;;;;;;8.68;2.05;;;;;;;;;;5009739;28;20096;-71
2021/12/29 14:50:53;;;;;;;5.68;2.00;;;;;;;;;;5026696;28;20045;-63
2021/12/29 14:53:24;;;;;;;6.43;1.98;;;;;;;;;;5003066;28;20248;-65
2021/12/29 14:55:52;;;;;;;7.43;1.98;;;;;;;;;;5021158;28;20421;-63